Time;durP1;ratioP1;P1;durP2;ratioP2;P2;SDS_P1;SDS_P2;PMS_P1;PMS_P2;Temp;Humidity;BMP_temperature;BMP_pressure;BME280_temperature;BME280_humidity;BME280_pressure;Samples;Min_cycle;Max_cycle;Signal;HPM_P1;HPM_P2
2022/08/18 00:00:50;;;;;;;6.95;4.05;;;;;;;26.41;45.91;98239.53;5033332;28;20141;-56
2022/08/18 00:03:35;;;;;;;4.70;3.80;;;;;;;26.37;46.12;98235.66;5034289;28;20061;-56
2022/08/18 00:06:19;;;;;;;7.03;4.82;;;;;;;26.25;46.62;98240.88;5034214;28;20108;-58
2022/08/18 00:09:07;;;;;;;5.32;3.90;;;;;;;26.24;46.46;98234.72;5032873;28;20060;-57
2022/08/18 00:11:51;;;;;;;5.35;3.83;;;;;;;26.28;46.70;98240.44;5033808;28;20067;-60
2022/08/18 00:14:36;;;;;;;7.32;4.47;;;;;;;25.99;47.51;98232.88;5033189;28;20390;-60
2022/08/18 00:17:21;;;;;;;5.05;4.00;;;;;;;25.97;47.51;98232.25;5033035;28;20087;-59
2022/08/18 00:20:10;;;;;;;8.25;4.45;;;;;;;25.80;47.95;98222.06;5034009;28;20042;-58
2022/08/18 00:22:55;;;;;;;8.52;4.53;;;;;;;25.88;48.10;98228.22;5040036;28;20478;-57
2022/08/18 00:25:40;;;;;;;6.00;4.10;;;;;;;25.77;48.34;98222.50;5035782;28;20084;-57
2022/08/18 00:28:25;;;;;;;6.30;4.60;;;;;;;25.87;48.10;98213.97;5039919;28;20117;-57
2022/08/18 00:31:10;;;;;;;6.75;4.55;;;;;;;25.61;48.65;98217.66;5033987;28;20037;-58
2022/08/18 00:33:54;;;;;;;6.15;4.10;;;;;;;25.59;48.83;98207.97;5033394;28;20045;-56
2022/08/18 00:36:39;;;;;;;8.25;4.65;;;;;;;25.60;48.77;98206.09;5044743;28;20043;-56
2022/08/18 00:39:24;;;;;;;6.40;4.03;;;;;;;25.66;48.43;98205.28;5046365;28;20034;-58
2022/08/18 00:42:20;;;;;;;5.57;3.95;;;;;;;25.70;48.32;98208.34;5032307;28;20133;-57
2022/08/18 00:45:05;;;;;;;7.32;4.35;;;;;;;25.56;48.80;98219.13;5032478;28;20048;-58
2022/08/18 00:47:50;;;;;;;5.40;4.10;;;;;;;25.88;48.01;98215.63;5035684;28;20100;-56
2022/08/18 00:50:43;;;;;;;5.60;4.32;;;;;;;25.82;48.01;98230.72;5033201;28;20104;-59
2022/08/18 00:53:35;;;;;;;4.82;3.67;;;;;;;25.64;48.09;98228.00;5033473;28;20072;-55
2022/08/18 00:56:37;;;;;;;11.27;4.13;;;;;;;25.76;47.78;98239.66;5058944;28;20120;-55
2022/08/18 00:59:44;;;;;;;6.40;4.18;;;;;;;26.11;46.70;98237.50;5032067;28;20447;-58
2022/08/18 01:02:34;;;;;;;5.93;4.20;;;;;;;25.83;47.64;98235.06;5059869;28;20389;-55
2022/08/18 01:05:29;;;;;;;7.60;4.13;;;;;;;25.63;48.44;98242.41;5032311;28;20045;-55
2022/08/18 01:08:15;;;;;;;8.35;4.40;;;;;;;25.55;48.63;98249.66;5032907;28;20037;-58
2022/08/18 01:11:02;;;;;;;5.50;3.70;;;;;;;25.53;48.76;98249.03;5032829;28;20080;-56
2022/08/18 01:13:49;;;;;;;5.32;3.95;;;;;;;25.74;48.41;98246.28;5032829;28;20523;-55
2022/08/18 01:22:47;;;;;;;6.65;4.20;;;;;;;25.69;49.00;98252.25;5042643;28;20428;-56
2022/08/18 01:28:41;;;;;;;5.85;4.38;;;;;;;25.77;48.57;98260.06;5031304;28;20060;-58
2022/08/18 01:31:39;;;;;;;10.82;5.22;;;;;;;25.38;49.78;98259.25;5031623;28;20048;-57
2022/08/18 01:34:27;;;;;;;6.10;3.95;;;;;;;25.32;49.84;98251.03;5038657;28;20041;-60
2022/08/18 01:37:11;;;;;;;6.03;4.55;;;;;;;25.33;49.91;98252.66;5049393;28;20166;-58
2022/08/18 01:39:59;;;;;;;6.32;4.53;;;;;;;25.07;50.57;98257.13;5046743;28;20384;-58
2022/08/18 01:42:45;;;;;;;6.40;4.40;;;;;;;25.34;49.95;98253.50;5034204;28;20420;-57
2022/08/18 01:45:34;;;;;;;5.70;4.43;;;;;;;25.36;49.72;98264.00;5045133;28;20037;-55
2022/08/18 01:48:18;;;;;;;7.47;4.13;;;;;;;25.40;49.79;98251.78;5031047;28;20080;-58
2022/08/18 01:51:06;;;;;;;7.78;4.75;;;;;;;25.03;50.64;98255.06;5035723;28;20037;-54
2022/08/18 01:53:51;;;;;;;7.03;4.35;;;;;;;25.39;49.78;98258.22;5044371;28;20116;-58
2022/08/18 01:56:36;;;;;;;6.65;4.45;;;;;;;24.92;51.04;98253.88;5045217;28;20460;-61
2022/08/18 01:59:21;;;;;;;7.03;4.95;;;;;;;24.92;51.21;98260.03;5035884;28;20119;-56
2022/08/18 02:02:05;;;;;;;7.22;4.22;;;;;;;24.79;51.47;98260.88;5036406;28;20052;-56
2022/08/18 02:04:59;;;;;;;8.02;4.07;;;;;;;25.15;50.74;98252.56;5044351;28;20040;-56
2022/08/18 02:07:44;;;;;;;5.57;4.10;;;;;;;25.48;49.76;98253.44;5034358;28;20076;-54
2022/08/18 02:10:30;;;;;;;7.47;4.00;;;;;;;25.61;49.35;98249.84;5045497;28;20494;-57
2022/08/18 02:13:15;;;;;;;6.38;4.70;;;;;;;25.39;49.97;98255.53;5032566;28;20748;-56
2022/08/18 02:16:01;;;;;;;5.75;4.30;;;;;;;25.11;50.44;98244.13;5063640;28;20832;-56
2022/08/18 02:18:46;;;;;;;6.57;4.57;;;;;;;25.03;50.75;98239.00;5030351;28;20076;-59
2022/08/18 02:21:30;;;;;;;8.55;4.50;;;;;;;25.02;50.47;98242.72;5031989;28;20045;-56
2022/08/18 02:24:15;;;;;;;5.80;4.43;;;;;;;25.26;50.19;98240.34;5058811;28;20484;-58
2022/08/18 02:27:00;;;;;;;8.23;4.72;;;;;;;24.93;50.81;98226.06;5030351;28;20033;-56
2022/08/18 02:29:45;;;;;;;7.47;4.32;;;;;;;24.53;51.81;98237.69;5031744;28;20033;-55
2022/08/18 02:32:31;;;;;;;6.40;4.22;;;;;;;24.28;52.39;98227.66;5031225;28;20041;-57
2022/08/18 02:35:16;;;;;;;7.93;4.43;;;;;;;24.47;51.63;98224.13;5043266;28;20107;-56
2022/08/18 02:38:02;;;;;;;5.20;3.83;;;;;;;24.76;50.95;98229.19;5046644;28;20095;-57
2022/08/18 02:40:54;;;;;;;7.15;4.38;;;;;;;24.62;51.12;98220.38;5039904;28;20037;-56
2022/08/18 02:43:41;;;;;;;7.85;4.10;;;;;;;24.50;51.32;98222.88;5041416;28;20037;-56
2022/08/18 02:46:26;;;;;;;6.22;4.20;;;;;;;24.58;50.87;98228.00;5034404;28;20044;-56
2022/08/18 02:49:11;;;;;;;6.38;4.07;;;;;;;24.43;51.27;98227.44;5009142;28;20517;-59
2022/08/18 02:51:56;;;;;;;8.05;4.53;;;;;;;24.45;51.34;98220.81;5065703;28;20033;-58
2022/08/18 02:54:40;;;;;;;8.75;4.45;;;;;;;24.34;51.51;98200.88;5018178;28;20108;-57
2022/08/18 02:57:25;;;;;;;7.07;4.80;;;;;;;24.14;51.89;98208.91;5034776;28;20045;-58
2022/08/18 03:00:14;;;;;;;5.82;4.13;;;;;;;24.12;52.06;98210.97;5031200;28;20412;-59
2022/08/18 03:03:00;;;;;;;7.78;4.60;;;;;;;24.21;52.25;98200.91;5039150;28;20048;-57
2022/08/18 03:05:44;;;;;;;7.68;4.80;;;;;;;24.05;52.55;98202.97;5034911;28;20717;-55
2022/08/18 03:08:29;;;;;;;7.13;4.60;;;;;;;24.07;52.39;98210.78;5039830;28;20391;-56
2022/08/18 03:11:20;;;;;;;7.88;4.43;;;;;;;24.11;52.19;98203.97;5034363;28;20109;-56
2022/08/18 03:14:08;;;;;;;7.47;4.60;;;;;;;23.96;52.60;98202.34;5040042;28;20037;-54
2022/08/18 03:16:53;;;;;;;6.32;4.47;;;;;;;23.92;52.93;98201.13;5030502;28;20112;-58
2022/08/18 03:19:38;;;;;;;5.88;4.55;;;;;;;23.82;52.97;98206.88;5030513;28;20445;-58
2022/08/18 03:22:24;;;;;;;8.77;4.75;;;;;;;23.92;52.86;98209.13;5030012;28;20049;-59
2022/08/18 03:25:11;;;;;;;7.15;4.53;;;;;;;23.98;52.77;98219.00;5030040;28;20120;-59
2022/08/18 03:27:56;;;;;;;6.47;4.70;;;;;;;24.09;52.13;98219.41;5029958;28;20049;-58
2022/08/18 03:30:42;;;;;;;6.60;4.43;;;;;;;23.93;52.82;98212.63;5029770;28;20041;-58
2022/08/18 03:33:26;;;;;;;8.80;4.65;;;;;;;23.70;53.29;98220.00;5030015;28;20045;-58
2022/08/18 03:36:20;;;;;;;6.65;5.20;;;;;;;23.69;53.61;98210.38;5030672;28;20072;-62
2022/08/18 03:39:08;;;;;;;6.63;4.57;;;;;;;23.53;53.73;98208.91;5030959;28;20037;-59
2022/08/18 03:41:54;;;;;;;6.57;4.60;;;;;;;23.50;53.98;98212.00;5029665;28;20085;-58
2022/08/18 03:44:39;;;;;;;9.30;5.10;;;;;;;23.75;53.34;98211.38;5048519;28;20052;-59
2022/08/18 03:47:23;;;;;;;5.88;4.32;;;;;;;23.61;53.86;98219.41;5033651;28;20388;-59
2022/08/18 03:50:08;;;;;;;7.18;4.20;;;;;;;23.50;53.84;98217.34;5039615;28;20068;-59
2022/08/18 03:52:54;;;;;;;6.07;4.38;;;;;;;23.49;54.19;98221.84;5035900;28;20060;-58
2022/08/18 03:55:41;;;;;;;7.32;4.88;;;;;;;23.73;53.61;98210.78;5042187;28;20065;-58
2022/08/18 03:58:27;;;;;;;6.03;4.25;;;;;;;23.83;53.28;98205.00;5033151;28;20041;-59
2022/08/18 04:01:14;;;;;;;7.00;4.63;;;;;;;23.55;54.25;98206.84;5033626;28;20099;-58
2022/08/18 04:04:03;;;;;;;7.20;4.50;;;;;;;23.79;53.81;98209.13;5033555;28;20046;-58
2022/08/18 04:06:54;;;;;;;10.90;4.63;;;;;;;23.89;53.53;98212.22;5033021;28;20492;-58
2022/08/18 04:09:38;;;;;;;6.18;4.68;;;;;;;23.78;53.75;98210.97;5034187;28;20471;-59
2022/08/18 04:12:23;;;;;;;6.15;4.28;;;;;;;23.90;53.50;98211.19;5022830;28;20111;-56
2022/08/18 04:15:08;;;;;;;7.03;4.80;;;;;;;23.59;54.19;98212.59;5039443;28;20405;-58
2022/08/18 04:18:06;;;;;;;7.18;4.68;;;;;;;23.71;54.49;98208.31;5041930;28;20041;-56
2022/08/18 04:20:51;;;;;;;6.72;4.40;;;;;;;23.80;54.44;98216.94;5038395;28;20040;-58
2022/08/18 04:23:37;;;;;;;7.70;4.47;;;;;;;23.71;55.03;98224.34;5033096;28;20369;-58
2022/08/18 04:26:22;;;;;;;7.07;4.80;;;;;;;23.70;55.52;98229.88;5038142;28;20041;-71
2022/08/18 04:29:10;;;;;;;6.38;4.90;;;;;;;23.61;55.84;98240.78;5053658;28;20365;-72
2022/08/18 04:32:03;;;;;;;8.50;4.93;;;;;;;23.78;55.46;98250.28;5025533;28;20057;-71
2022/08/18 04:34:51;;;;;;;8.60;4.47;;;;;;;23.96;54.88;98244.31;5034639;28;20048;-70
2022/08/18 04:37:37;;;;;;;7.78;4.55;;;;;;;23.86;55.22;98250.88;5035157;28;20040;-70
2022/08/18 04:40:25;;;;;;;9.95;5.43;;;;;;;23.59;56.13;98248.19;5052338;28;20045;-70
2022/08/18 04:43:14;;;;;;;8.38;5.07;;;;;;;23.79;55.65;98252.75;5052063;28;20068;-71
2022/08/18 04:46:00;;;;;;;7.18;4.43;;;;;;;23.78;55.85;98251.06;5023973;28;20701;-71
2022/08/18 04:48:47;;;;;;;11.25;5.25;;;;;;;23.54;56.17;98249.81;5038679;28;20052;-70
2022/08/18 04:51:32;;;;;;;8.13;5.03;;;;;;;23.63;56.36;98257.44;5044962;28;20056;-71
2022/08/18 04:54:18;;;;;;;8.77;4.93;;;;;;;23.80;56.13;98262.38;5023133;28;20069;-70
2022/08/18 04:57:21;;;;;;;6.97;4.80;;;;;;;23.71;56.09;98275.16;5045889;28;20436;-71
2022/08/18 05:00:12;;;;;;;8.30;4.88;;;;;;;23.84;56.00;98273.50;5039367;28;20464;-72
2022/08/18 05:02:56;;;;;;;10.25;5.40;;;;;;;23.88;56.07;98277.41;5032236;28;20045;-71
2022/08/18 05:05:42;;;;;;;11.52;5.30;;;;;;;23.76;56.42;98266.50;5035115;28;20116;-71
2022/08/18 05:08:26;;;;;;;7.85;5.53;;;;;;;23.53;57.19;98270.38;5037812;28;20430;-71
2022/08/18 05:11:13;;;;;;;6.85;5.05;;;;;;;23.54;57.34;98272.00;5042966;28;20037;-71
2022/08/18 05:13:59;;;;;;;7.20;4.55;;;;;;;23.75;56.50;98263.00;5044578;28;20443;-71
2022/08/18 05:16:44;;;;;;;6.93;4.50;;;;;;;23.66;57.11;98253.53;5060083;28;20044;-71
2022/08/18 05:19:30;;;;;;;12.35;5.10;;;;;;;23.64;56.94;98258.25;5037967;28;20120;-70
2022/08/18 05:22:18;;;;;;;8.43;5.40;;;;;;;23.65;56.84;98259.91;5032121;28;20037;-67
2022/08/18 05:25:02;;;;;;;7.28;5.43;;;;;;;23.82;56.49;98268.38;5060578;28;20108;-67
2022/08/18 05:27:48;;;;;;;8.23;4.88;;;;;;;23.81;56.45;98271.25;5041434;28;20048;-68
2022/08/18 05:30:33;;;;;;;9.80;5.82;;;;;;;23.71;57.01;98271.63;5051147;28;20033;-66
2022/08/18 05:33:19;;;;;;;10.52;4.80;;;;;;;23.91;56.65;98278.88;5035230;28;20041;-67
2022/08/18 05:36:09;;;;;;;8.82;4.80;;;;;;;24.04;55.81;98268.16;5031431;28;20037;-68
2022/08/18 05:39:16;;;;;;;10.82;5.20;;;;;;;23.94;56.69;98287.28;5031357;28;20058;-69
2022/08/18 05:42:18;;;;;;;9.25;5.22;;;;;;;24.02;56.28;98274.75;5032326;28;20120;-68
2022/08/18 05:45:11;;;;;;;9.05;5.45;;;;;;;24.01;56.52;98276.59;5045544;28;20056;-66
2022/08/18 05:47:58;;;;;;;10.48;5.65;;;;;;;24.04;56.23;98292.22;5031965;28;20034;-65
2022/08/18 05:50:43;;;;;;;8.50;5.07;;;;;;;23.94;56.62;98286.47;5030861;28;20041;-66
2022/08/18 05:56:47;;;;;;;10.18;5.68;;;;;;;24.00;56.54;98291.00;5032893;28;20421;-67
2022/08/18 05:59:37;;;;;;;9.80;6.07;;;;;;;24.07;56.56;98289.16;5033686;28;20091;-70
2022/08/18 06:02:37;;;;;;;8.13;5.50;;;;;;;23.95;57.29;98291.63;5018048;28;20088;-67
2022/08/18 06:05:27;;;;;;;9.85;5.93;;;;;;;24.10;57.34;98293.28;5038091;28;20389;-68
2022/08/18 06:08:15;;;;;;;10.98;5.43;;;;;;;24.01;57.45;98284.63;5039632;28;20037;-67
2022/08/18 06:10:59;;;;;;;9.15;5.85;;;;;;;24.18;57.02;98290.44;5031210;28;20503;-67
2022/08/18 06:13:44;;;;;;;10.50;6.28;;;;;;;24.39;56.57;98285.88;5035060;28;20037;-67
2022/08/18 06:16:47;;;;;;;11.05;7.57;;;;;;;24.93;55.16;98290.34;5036316;28;20029;-66
2022/08/18 06:19:38;;;;;;;10.93;5.25;;;;;;;24.77;55.25;98279.03;5040132;28;20076;-71
2022/08/18 06:22:55;;;;;;;8.90;5.68;;;;;;;24.87;55.22;98286.63;5031072;28;20034;-66
2022/08/18 06:25:56;;;;;;;11.35;6.07;;;;;;;24.90;54.91;98288.91;5065373;28;20420;-67
2022/08/18 06:29:21;;;;;;;11.65;5.68;;;;;;;25.30;53.40;98293.28;5041666;28;20061;-72
2022/08/18 06:32:18;;;;;;;10.30;5.60;;;;;;;25.49;53.12;98297.94;5037922;28;20049;-64
2022/08/18 06:35:17;;;;;;;7.60;5.43;;;;;;;25.90;51.54;98307.41;5031699;28;20041;-62
2022/08/18 06:38:40;;;;;;;8.90;5.07;;;;;;;26.15;50.95;98305.78;5040171;28;20125;-63
2022/08/18 06:41:41;;;;;;;8.57;5.70;;;;;;;25.85;51.35;98309.13;5031158;28;20040;-60
2022/08/18 06:44:39;;;;;;;9.65;5.47;;;;;;;26.10;50.50;98302.97;5044158;28;20036;-61
2022/08/18 06:47:42;;;;;;;7.93;4.90;;;;;;;26.32;49.82;98314.16;5055869;28;20040;-61
2022/08/18 06:50:33;;;;;;;7.38;5.45;;;;;;;26.68;48.99;98311.78;5029734;28;20045;-61
2022/08/18 06:53:18;;;;;;;7.30;4.90;;;;;;;26.86;48.24;98318.19;5032560;28;20042;-61
2022/08/18 06:56:34;;;;;;;8.25;5.75;;;;;;;27.06;47.40;98321.50;5044722;28;20045;-62
2022/08/18 06:59:53;;;;;;;9.13;5.10;;;;;;;26.92;48.13;98323.50;5030670;28;20068;-61
2022/08/18 07:02:48;;;;;;;11.40;4.93;;;;;;;26.89;48.05;98323.94;5043195;28;20418;-62
2022/08/18 07:05:34;;;;;;;9.98;4.88;;;;;;;27.09;47.37;98328.31;5030145;28;20103;-61
2022/08/18 07:08:31;;;;;;;7.07;4.95;;;;;;;27.22;47.15;98331.88;5063383;28;20469;-61
2022/08/18 07:11:26;;;;;;;7.80;5.55;;;;;;;27.34;46.90;98330.06;5035507;28;20120;-61
2022/08/18 07:14:19;;;;;;;9.27;4.87;;;;;;;27.39;46.51;98342.84;5041967;28;20526;-62
2022/08/18 07:17:10;;;;;;;10.32;4.60;;;;;;;27.54;45.64;98334.38;5047370;28;20048;-60
2022/08/18 07:19:56;;;;;;;;;;;;;;;28.06;44.93;98334.94;5037438;28;20030;-60
2022/08/18 07:23:19;;;;;;;10.80;4.82;;;;;;;28.47;43.76;98329.72;5033882;28;19940;-61
2022/08/18 07:26:16;;;;;;;8.40;4.38;;;;;;;28.53;43.47;98324.25;5062151;28;20052;-61
2022/08/18 07:29:14;;;;;;;6.53;3.72;;;;;;;28.99;42.34;98323.63;5035949;28;20045;-62
2022/08/18 07:32:09;;;;;;;7.22;4.47;;;;;;;29.25;42.17;98324.16;5043198;28;20476;-61
2022/08/18 07:35:00;;;;;;;7.55;4.68;;;;;;;28.74;43.13;98326.59;5019485;28;20037;-60
2022/08/18 07:38:00;;;;;;;7.43;4.00;;;;;;;29.27;41.44;98323.91;5052706;28;20106;-61
2022/08/18 07:40:57;;;;;;;7.63;4.15;;;;;;;29.53;40.96;98327.13;5042623;28;20429;-64
2022/08/18 07:44:02;;;;;;;7.05;4.13;;;;;;;28.88;42.22;98324.44;5053229;28;20052;-61
2022/08/18 07:46:58;;;;;;;8.85;4.13;;;;;;;30.15;40.39;98334.69;5045137;28;20423;-60
2022/08/18 07:49:45;;;;;;;12.13;4.90;;;;;;;30.09;40.47;98334.63;5047370;28;20053;-60
2022/08/18 07:52:44;;;;;;;7.53;4.53;;;;;;;29.66;40.51;98334.13;5053736;28;20099;-61
2022/08/18 07:55:37;;;;;;;6.70;4.15;;;;;;;30.19;40.28;98335.84;5033114;28;20034;-60
2022/08/18 07:58:40;;;;;;;6.70;4.40;;;;;;;31.28;38.44;98334.69;5038454;28;20544;-60
2022/08/18 08:01:48;;;;;;;6.25;4.07;;;;;;;31.06;38.34;98345.53;5031842;28;20373;-61
2022/08/18 08:04:51;;;;;;;5.90;4.05;;;;;;;31.31;38.34;98338.78;5034382;28;20041;-61
2022/08/18 08:07:54;;;;;;;7.88;4.50;;;;;;;31.50;37.59;98342.00;5050447;28;20045;-61
2022/08/18 08:10:54;;;;;;;7.10;4.20;;;;;;;31.82;37.52;98343.97;5033168;28;20037;-62
2022/08/18 08:13:42;;;;;;;7.00;3.90;;;;;;;31.92;37.01;98359.47;5045878;28;20030;-61
2022/08/18 08:16:50;;;;;;;7.28;4.20;;;;;;;32.52;35.92;98355.13;5047011;28;20045;-62
2022/08/18 08:20:10;;;;;;;6.15;4.20;;;;;;;33.04;35.63;98353.53;5032892;28;20042;-62
2022/08/18 08:23:16;;;;;;;7.00;3.80;;;;;;;32.55;36.39;98358.13;5062622;28;20045;-62
2022/08/18 08:26:25;;;;;;;7.43;4.07;;;;;;;33.65;33.68;98337.78;5033151;28;20061;-61
2022/08/18 08:29:36;;;;;;;9.02;4.38;;;;;;;33.40;34.66;98325.75;5061503;28;20052;-62
2022/08/18 08:32:32;;;;;;;5.15;3.45;;;;;;;34.09;33.71;98321.25;5034474;28;20477;-62
2022/08/18 08:35:32;;;;;;;5.65;3.78;;;;;;;34.39;33.27;98333.22;5035163;28;20038;-62
2022/08/18 08:38:46;;;;;;;8.05;3.60;;;;;;;33.14;34.32;98331.09;5038366;28;20041;-62
2022/08/18 08:41:38;;;;;;;7.57;4.00;;;;;;;33.46;33.44;98332.00;5019230;28;20069;-62
2022/08/18 08:44:34;;;;;;;5.28;3.67;;;;;;;33.76;32.87;98341.31;5059528;28;20431;-62
2022/08/18 08:47:25;;;;;;;5.80;3.00;;;;;;;34.53;31.31;98338.88;5032755;28;20042;-62
2022/08/18 08:50:19;;;;;;;4.38;3.22;;;;;;;34.88;32.98;98344.56;5032663;28;20038;-62
2022/08/18 08:53:38;;;;;;;7.97;3.58;;;;;;;35.43;29.95;98329.38;5040562;28;20055;-62
2022/08/18 08:56:29;;;;;;;4.95;3.50;;;;;;;35.05;31.86;98335.22;5033154;28;20033;-62
2022/08/18 08:59:17;;;;;;;4.22;2.72;;;;;;;36.59;29.66;98333.69;5047675;28;20052;-62
2022/08/18 09:02:23;;;;;;;6.25;3.40;;;;;;;36.27;29.00;98324.19;5040728;28;20071;-61
2022/08/18 09:05:21;;;;;;;4.82;3.00;;;;;;;35.95;29.36;98323.59;5031946;28;20079;-60
2022/08/18 09:08:31;;;;;;;5.97;3.13;;;;;;;35.90;29.54;98315.47;5036024;28;20037;-61
2022/08/18 09:11:48;;;;;;;5.80;3.20;;;;;;;35.46;31.02;98291.53;5037523;28;20095;-60
2022/08/18 09:14:54;;;;;;;6.78;3.10;;;;;;;35.00;30.22;98296.09;5033187;28;20064;-61
2022/08/18 09:17:49;;;;;;;3.92;2.90;;;;;;;35.86;29.93;98285.25;5032926;28;20038;-63
2022/08/18 09:21:03;;;;;;;5.57;2.78;;;;;;;36.33;28.21;98285.66;5032724;28;20361;-61
2022/08/18 09:23:52;;;;;;;7.90;3.40;;;;;;;36.26;29.31;98268.84;5032692;28;20468;-61
2022/08/18 09:26:45;;;;;;;5.85;3.40;;;;;;;35.96;28.86;98266.09;5032694;28;20572;-61
2022/08/18 09:29:36;;;;;;;4.07;2.75;;;;;;;36.46;28.53;98259.63;5044383;28;20040;-61
2022/08/18 09:32:21;;;;;;;5.75;3.00;;;;;;;37.48;27.12;98251.53;5033035;28;20050;-61
2022/08/18 09:35:26;;;;;;;5.47;3.10;;;;;;;37.22;27.12;98238.25;5032410;28;20117;-61
2022/08/18 09:41:31;;;;;;;3.90;2.47;;;;;;;36.54;28.80;98247.31;5034319;28;20388;-62
2022/08/18 09:44:39;;;;;;;7.47;2.80;;;;;;;36.94;27.43;98249.81;5072201;28;20041;-61
2022/08/18 09:47:24;;;;;;;7.50;2.65;;;;;;;36.89;27.32;98254.56;5032474;28;20144;-61
2022/08/18 09:50:12;;;;;;;7.43;2.80;;;;;;;37.38;27.66;98240.81;5044848;28;20042;-61
2022/08/18 09:53:18;;;;;;;5.97;2.55;;;;;;;37.67;26.17;98247.97;5047785;28;20041;-61
2022/08/18 09:56:04;;;;;;;11.75;2.67;;;;;;;37.34;26.37;98248.75;5067165;28;20049;-61
2022/08/18 09:58:57;;;;;;;3.72;2.20;;;;;;;37.64;27.55;98237.66;5058486;28;20037;-60
2022/08/18 10:01:42;;;;;;;6.45;2.40;;;;;;;36.58;27.08;98239.34;5032125;28;20056;-60
2022/08/18 10:04:31;;;;;;;4.25;2.80;;;;;;;37.24;27.28;98230.63;5045058;28;20041;-61
2022/08/18 10:07:32;;;;;;;5.85;2.92;;;;;;;37.82;26.27;98249.66;5058539;28;20706;-60
2022/08/18 10:10:30;;;;;;;5.35;2.67;;;;;;;35.72;28.21;98266.00;5039943;28;20041;-60
2022/08/18 10:13:39;;;;;;;7.57;3.10;;;;;;;37.03;26.69;98268.28;5033517;28;20033;-60
2022/08/18 10:16:54;;;;;;;7.47;2.50;;;;;;;37.43;27.75;98257.06;5042656;28;20053;-62
2022/08/18 10:19:55;;;;;;;3.70;2.22;;;;;;;37.52;28.01;98252.59;5030833;28;20045;-61
2022/08/18 10:22:46;;;;;;;5.40;2.20;;;;;;;38.24;27.91;98252.50;5058761;28;20033;-59
2022/08/18 10:25:38;;;;;;;7.55;2.55;;;;;;;37.33;27.63;98260.78;5031645;28;20060;-59
2022/08/18 10:29:02;;;;;;;3.20;2.05;;;;;;;37.59;29.33;98249.44;5031238;28;20037;-59
2022/08/18 10:31:56;;;;;;;6.65;2.35;;;;;;;38.78;25.40;98246.53;5062215;28;20149;-60
2022/08/18 10:34:44;;;;;;;8.48;2.40;;;;;;;38.68;26.47;98239.34;5053002;28;20169;-59
2022/08/18 10:37:38;;;;;;;5.95;2.38;;;;;;;38.48;26.00;98245.22;5025492;28;20396;-59
2022/08/18 10:40:23;;;;;;;4.38;1.95;;;;;;;39.45;26.76;98246.16;5068982;28;20077;-60
2022/08/18 10:43:34;;;;;;;4.03;2.25;;;;;;;38.49;27.44;98244.91;5051812;28;20041;-60
2022/08/18 10:46:24;;;;;;;2.88;1.88;;;;;;;38.48;25.72;98239.75;5035617;28;20045;-61
2022/08/18 10:49:12;;;;;;;4.82;2.40;;;;;;;37.76;26.83;98227.09;5065614;28;20060;-60
2022/08/18 10:52:28;;;;;;;4.85;2.13;;;;;;;38.44;26.86;98220.41;5036612;28;20050;-60
2022/08/18 10:55:22;;;;;;;6.30;2.30;;;;;;;38.59;27.09;98221.19;5048166;28;20037;-61
2022/08/18 10:58:36;;;;;;;6.90;2.28;;;;;;;38.62;25.41;98220.63;5037850;28;20045;-61
2022/08/18 11:02:03;;;;;;;5.88;2.20;;;;;;;39.15;25.65;98229.34;5060728;28;20053;-60
2022/08/18 11:04:50;;;;;;;2.90;1.80;;;;;;;39.60;23.95;98234.06;5040846;28;20049;-64
2022/08/18 11:07:37;;;;;;;7.53;1.88;;;;;;;39.99;24.43;98228.97;5035577;28;20056;-60
2022/08/18 11:10:47;;;;;;;4.55;2.00;;;;;;;39.51;24.92;98228.50;5044507;28;20373;-61
2022/08/18 11:14:14;;;;;;;4.38;1.60;;;;;;;40.40;23.63;98218.00;5036833;28;20514;-59
2022/08/18 11:17:07;;;;;;;4.55;1.88;;;;;;;40.43;23.16;98217.38;5036758;28;20156;-59
2022/08/18 11:19:59;;;;;;;4.47;1.85;;;;;;;39.63;24.30;98210.75;5036924;28;20532;-59
2022/08/18 11:22:58;;;;;;;6.97;1.65;;;;;;;40.06;24.37;98214.84;5037177;28;20091;-59
2022/08/18 11:25:43;;;;;;;3.85;1.80;;;;;;;39.05;23.95;98216.69;5036162;28;20473;-59
2022/08/18 11:28:28;;;;;;;3.30;1.65;;;;;;;39.16;24.77;98207.16;5034832;28;20444;-60
2022/08/18 11:31:13;;;;;;;3.33;1.58;;;;;;;38.74;26.06;98211.91;5066987;28;20477;-60
2022/08/18 11:33:57;;;;;;;2.40;1.80;;;;;;;39.74;24.46;98212.09;5061652;28;20049;-59
2022/08/18 11:36:42;;;;;;;3.55;1.88;;;;;;;38.96;24.93;98218.53;5033405;28;20060;-60
2022/08/18 11:39:28;;;;;;;2.90;1.65;;;;;;;39.98;25.02;98216.41;5045000;28;20037;-60
2022/08/18 11:42:15;;;;;;;2.97;1.88;;;;;;;39.37;24.93;98225.03;5048638;28;20065;-59
2022/08/18 11:45:12;;;;;;;3.50;1.90;;;;;;;38.36;26.08;98211.00;5051224;28;20048;-59
2022/08/18 11:48:24;;;;;;;5.18;2.10;;;;;;;38.11;25.41;98204.09;5051515;28;20052;-59
2022/08/18 11:51:16;;;;;;;4.85;2.30;;;;;;;38.57;25.39;98205.91;5047276;28;20034;-59
2022/08/18 11:54:20;;;;;;;2.72;2.13;;;;;;;39.03;23.98;98178.69;5046210;28;20041;-59
2022/08/18 11:57:30;;;;;;;5.07;2.20;;;;;;;37.96;26.29;98173.22;5045981;28;20099;-59
2022/08/18 12:00:35;;;;;;;2.95;2.10;;;;;;;39.25;24.55;98166.16;5034103;28;20044;-59
2022/08/18 12:03:37;;;;;;;4.38;1.90;;;;;;;37.58;26.17;98174.13;5034118;28;20121;-59
2022/08/18 12:06:30;;;;;;;2.88;1.88;;;;;;;38.63;25.92;98179.28;5046122;28;20049;-59
2022/08/18 12:09:21;;;;;;;2.97;1.60;;;;;;;39.98;24.95;98180.78;5036681;28;20471;-59
2022/08/18 12:12:18;;;;;;;4.15;2.30;;;;;;;39.27;24.42;98188.56;5033928;28;20041;-59
2022/08/18 12:15:11;;;;;;;4.28;1.80;;;;;;;39.46;25.58;98184.00;5033762;28;20096;-59
2022/08/18 12:17:56;;;;;;;2.75;2.00;;;;;;;39.09;23.40;98198.53;5041188;28;20036;-58
2022/08/18 12:20:41;;;;;;;5.78;1.83;;;;;;;38.99;24.11;98185.09;5046396;28;20435;-59
2022/08/18 12:23:26;;;;;;;5.30;2.10;;;;;;;39.53;23.49;98193.38;5026314;28;20053;-60
2022/08/18 12:26:11;;;;;;;4.25;1.90;;;;;;;39.62;23.76;98192.66;5053178;28;20043;-61
2022/08/18 12:28:56;;;;;;;3.55;1.95;;;;;;;39.94;23.15;98198.16;5037357;28;20044;-59
2022/08/18 12:31:42;;;;;;;6.10;1.67;;;;;;;40.28;22.97;98199.44;5043738;28;20037;-59
2022/08/18 12:34:27;;;;;;;3.72;1.88;;;;;;;40.75;23.42;98196.19;5033454;28;20065;-59
2022/08/18 12:37:15;;;;;;;5.00;2.15;;;;;;;40.55;23.31;98194.03;5033431;28;20496;-59
2022/08/18 12:40:00;;;;;;;2.55;1.98;;;;;;;40.82;21.56;98181.97;5033664;28;20436;-59
2022/08/18 12:42:48;;;;;;;2.67;1.77;;;;;;;39.76;23.26;98178.91;5033431;28;20384;-60
2022/08/18 12:45:33;;;;;;;4.40;2.13;;;;;;;40.87;21.75;98172.78;5033652;28;20068;-59
2022/08/18 12:48:18;;;;;;;2.75;1.50;;;;;;;40.30;22.82;98168.97;5046306;28;20053;-58
2022/08/18 12:51:03;;;;;;;3.17;2.20;;;;;;;40.57;23.06;98156.97;5041672;28;20045;-60
2022/08/18 12:53:48;;;;;;;3.78;1.65;;;;;;;39.71;21.61;98166.13;5076882;28;20049;-59
2022/08/18 12:56:33;;;;;;;4.05;2.08;;;;;;;39.89;21.32;98161.53;5037917;28;20053;-59
2022/08/18 12:59:17;;;;;;;2.92;1.55;;;;;;;39.15;22.37;98148.06;5060319;28;20042;-59
2022/08/18 13:02:02;;;;;;;3.13;1.65;;;;;;;40.29;21.48;98151.72;5033266;28;20075;-59
2022/08/18 13:04:46;;;;;;;4.18;1.83;;;;;;;40.02;20.85;98159.81;5031854;28;20556;-60
2022/08/18 13:07:32;;;;;;;3.30;1.60;;;;;;;39.78;20.97;98146.50;5032118;28;20480;-60
2022/08/18 13:10:16;;;;;;;3.05;1.73;;;;;;;40.22;20.39;98148.63;5060138;28;20037;-58
2022/08/18 13:13:01;;;;;;;3.45;1.65;;;;;;;40.34;19.14;98150.75;5033077;28;20045;-59
2022/08/18 13:15:46;;;;;;;2.67;1.60;;;;;;;40.10;18.88;98141.03;5030858;28;20065;-58
2022/08/18 13:18:31;;;;;;;2.67;1.90;;;;;;;39.73;21.41;98143.91;5032879;28;20477;-59
2022/08/18 13:21:17;;;;;;;5.15;1.80;;;;;;;39.31;22.13;98144.94;5031953;28;20041;-59
2022/08/18 13:24:03;;;;;;;5.78;1.90;;;;;;;39.19;22.19;98137.28;5035738;28;20041;-59
2022/08/18 13:26:49;;;;;;;3.95;2.10;;;;;;;39.22;21.74;98149.56;5040388;28;20057;-59
2022/08/18 13:29:33;;;;;;;3.83;1.33;;;;;;;39.81;20.22;98142.34;5034356;28;20049;-59
2022/08/18 13:32:18;;;;;;;2.95;1.50;;;;;;;40.14;17.45;98151.03;5032758;28;20365;-59
2022/08/18 13:35:04;;;;;;;3.72;1.52;;;;;;;39.98;20.02;98153.38;5032409;28;20096;-59
2022/08/18 13:37:48;;;;;;;3.50;1.80;;;;;;;40.14;19.17;98155.69;5032110;28;20046;-59
2022/08/18 13:40:33;;;;;;;4.85;2.00;;;;;;;40.09;19.65;98142.94;5032180;28;20473;-58
2022/08/18 13:43:21;;;;;;;4.53;1.70;;;;;;;39.38;18.57;98150.78;5036200;28;20124;-59
2022/08/18 13:46:11;;;;;;;3.90;1.33;;;;;;;39.73;19.01;98139.22;5038024;28;20404;-60